sensor_id;sensor_type;location;lat;lon;timestamp;temperature;humidity
10344;DHT22;5217;43.960;10.954;2023-11-18T00:01:32;15.80;99.90
10344;DHT22;5217;43.960;10.954;2023-11-18T00:04:01;15.80;99.90
10344;DHT22;5217;43.960;10.954;2023-11-18T00:06:29;15.80;99.90
10344;DHT22;5217;43.960;10.954;2023-11-18T00:08:58;15.80;99.90
10344;DHT22;5217;43.960;10.954;2023-11-18T00:11:26;15.80;99.90
10344;DHT22;5217;43.960;10.954;2023-11-18T00:13:55;15.80;99.90
10344;DHT22;5217;43.960;10.954;2023-11-18T00:16:23;15.80;99.90
10344;DHT22;5217;43.960;10.954;2023-11-18T00:18:55;15.70;99.90
10344;DHT22;5217;43.960;10.954;2023-11-18T00:21:23;15.70;99.90
10344;DHT22;5217;43.960;10.954;2023-11-18T00:23:52;15.70;99.90
10344;DHT22;5217;43.960;10.954;2023-11-18T00:26:20;15.70;99.90
10344;DHT22;5217;43.960;10.954;2023-11-18T00:28:49;15.70;99.90
10344;DHT22;5217;43.960;10.954;2023-11-18T00:31:17;15.70;99.90
10344;DHT22;5217;43.960;10.954;2023-11-18T00:33:46;15.70;99.90
10344;DHT22;5217;43.960;10.954;2023-11-18T00:36:16;15.70;99.90
10344;DHT22;5217;43.960;10.954;2023-11-18T00:38:44;15.70;99.90
10344;DHT22;5217;43.960;10.954;2023-11-18T00:41:11;15.60;99.90
10344;DHT22;5217;43.960;10.954;2023-11-18T00:43:40;15.60;99.90
10344;DHT22;5217;43.960;10.954;2023-11-18T00:46:09;15.60;99.90
10344;DHT22;5217;43.960;10.954;2023-11-18T00:48:37;15.60;99.90
10344;DHT22;5217;43.960;10.954;2023-11-18T00:51:06;15.60;99.90
10344;DHT22;5217;43.960;10.954;2023-11-18T00:53:36;15.60;99.90
10344;DHT22;5217;43.960;10.954;2023-11-18T00:56:05;15.60;99.90
10344;DHT22;5217;43.960;10.954;2023-11-18T00:58:36;15.60;99.90
10344;DHT22;5217;43.960;10.954;2023-11-18T01:01:07;15.50;99.90
10344;DHT22;5217;43.960;10.954;2023-11-18T01:03:36;15.50;99.90
10344;DHT22;5217;43.960;10.954;2023-11-18T01:06:06;15.50;99.90
10344;DHT22;5217;43.960;10.954;2023-11-18T01:08:35;15.50;99.90
10344;DHT22;5217;43.960;10.954;2023-11-18T01:11:04;15.50;99.90
10344;DHT22;5217;43.960;10.954;2023-11-18T01:13:33;15.50;99.90
10344;DHT22;5217;43.960;10.954;2023-11-18T01:16:01;15.50;99.90
10344;DHT22;5217;43.960;10.954;2023-11-18T01:18:31;15.50;99.90
10344;DHT22;5217;43.960;10.954;2023-11-18T01:21:02;15.50;99.90
10344;DHT22;5217;43.960;10.954;2023-11-18T01:23:32;15.40;99.90
10344;DHT22;5217;43.960;10.954;2023-11-18T01:26:02;15.40;99.90
10344;DHT22;5217;43.960;10.954;2023-11-18T01:28:32;15.40;99.90
10344;DHT22;5217;43.960;10.954;2023-11-18T01:31:04;15.40;99.90
10344;DHT22;5217;43.960;10.954;2023-11-18T01:33:34;15.40;99.90
10344;DHT22;5217;43.960;10.954;2023-11-18T01:36:04;15.40;99.90
10344;DHT22;5217;43.960;10.954;2023-11-18T01:38:33;15.30;99.90
10344;DHT22;5217;43.960;10.954;2023-11-18T01:41:03;15.40;99.90
10344;DHT22;5217;43.960;10.954;2023-11-18T01:43:33;15.30;99.90
10344;DHT22;5217;43.960;10.954;2023-11-18T01:46:03;15.30;99.90
10344;DHT22;5217;43.960;10.954;2023-11-18T01:48:32;15.30;99.90
10344;DHT22;5217;43.960;10.954;2023-11-18T01:51:01;15.30;99.90
10344;DHT22;5217;43.960;10.954;2023-11-18T01:53:34;15.20;99.90
10344;DHT22;5217;43.960;10.954;2023-11-18T01:56:06;15.20;99.90
10344;DHT22;5217;43.960;10.954;2023-11-18T01:58:36;15.20;99.90
10344;DHT22;5217;43.960;10.954;2023-11-18T02:01:05;15.20;99.90
10344;DHT22;5217;43.960;10.954;2023-11-18T02:03:35;15.20;99.90
10344;DHT22;5217;43.960;10.954;2023-11-18T02:06:06;15.20;99.90
10344;DHT22;5217;43.960;10.954;2023-11-18T02:08:37;15.10;99.90
10344;DHT22;5217;43.960;10.954;2023-11-18T02:11:17;15.10;99.90
10344;DHT22;5217;43.960;10.954;2023-11-18T02:13:48;15.10;99.90
10344;DHT22;5217;43.960;10.954;2023-11-18T02:16:20;15.10;99.90
10344;DHT22;5217;43.960;10.954;2023-11-18T02:18:49;15.00;99.90
10344;DHT22;5217;43.960;10.954;2023-11-18T02:21:22;15.00;99.90
10344;DHT22;5217;43.960;10.954;2023-11-18T02:23:54;15.00;99.90
10344;DHT22;5217;43.960;10.954;2023-11-18T02:26:24;15.00;99.90
10344;DHT22;5217;43.960;10.954;2023-11-18T02:28:53;15.00;99.90
10344;DHT22;5217;43.960;10.954;2023-11-18T02:31:28;15.00;99.90
10344;DHT22;5217;43.960;10.954;2023-11-18T02:34:02;14.90;99.90
10344;DHT22;5217;43.960;10.954;2023-11-18T02:36:39;15.00;99.90
10344;DHT22;5217;43.960;10.954;2023-11-18T02:39:12;14.90;99.90
10344;DHT22;5217;43.960;10.954;2023-11-18T02:41:48;14.90;99.90
10344;DHT22;5217;43.960;10.954;2023-11-18T02:44:20;14.90;99.90
10344;DHT22;5217;43.960;10.954;2023-11-18T02:46:51;14.90;99.90
10344;DHT22;5217;43.960;10.954;2023-11-18T02:49:20;14.80;99.90
10344;DHT22;5217;43.960;10.954;2023-11-18T02:51:49;14.80;99.90
10344;DHT22;5217;43.960;10.954;2023-11-18T02:54:17;14.80;99.90
10344;DHT22;5217;43.960;10.954;2023-11-18T02:56:47;14.80;99.90
10344;DHT22;5217;43.960;10.954;2023-11-18T02:59:16;14.80;99.90
10344;DHT22;5217;43.960;10.954;2023-11-18T03:01:44;14.80;99.90
10344;DHT22;5217;43.960;10.954;2023-11-18T03:04:12;14.80;99.90
10344;DHT22;5217;43.960;10.954;2023-11-18T03:06:42;14.70;99.90
10344;DHT22;5217;43.960;10.954;2023-11-18T03:09:10;14.80;99.90
10344;DHT22;5217;43.960;10.954;2023-11-18T03:11:38;14.80;99.90
10344;DHT22;5217;43.960;10.954;2023-11-18T03:14:08;14.70;99.90
10344;DHT22;5217;43.960;10.954;2023-11-18T03:16:37;14.70;99.90
10344;DHT22;5217;43.960;10.954;2023-11-18T03:19:06;14.70;99.90
10344;DHT22;5217;43.960;10.954;2023-11-18T03:21:36;14.70;99.90
10344;DHT22;5217;43.960;10.954;2023-11-18T03:24:07;14.70;99.90
10344;DHT22;5217;43.960;10.954;2023-11-18T03:26:36;14.70;99.90
10344;DHT22;5217;43.960;10.954;2023-11-18T03:29:04;14.60;99.90
10344;DHT22;5217;43.960;10.954;2023-11-18T03:31:34;14.60;99.90
10344;DHT22;5217;43.960;10.954;2023-11-18T03:34:03;14.60;99.90
10344;DHT22;5217;43.960;10.954;2023-11-18T03:36:31;14.60;99.90
10344;DHT22;5217;43.960;10.954;2023-11-18T03:39:00;14.60;99.90
10344;DHT22;5217;43.960;10.954;2023-11-18T03:41:28;14.60;99.90
10344;DHT22;5217;43.960;10.954;2023-11-18T03:43:57;14.50;99.90
10344;DHT22;5217;43.960;10.954;2023-11-18T03:46:25;14.50;99.90
10344;DHT22;5217;43.960;10.954;2023-11-18T03:49:02;14.50;99.90
10344;DHT22;5217;43.960;10.954;2023-11-18T03:51:31;14.50;99.90
10344;DHT22;5217;43.960;10.954;2023-11-18T03:53:59;14.50;99.90
10344;DHT22;5217;43.960;10.954;2023-11-18T03:56:27;14.40;99.90
10344;DHT22;5217;43.960;10.954;2023-11-18T03:58:56;14.40;99.90
10344;DHT22;5217;43.960;10.954;2023-11-18T04:01:25;14.40;99.90
10344;DHT22;5217;43.960;10.954;2023-11-18T04:03:54;14.40;99.90
10344;DHT22;5217;43.960;10.954;2023-11-18T04:06:24;14.30;99.90
10344;DHT22;5217;43.960;10.954;2023-11-18T04:08:53;14.30;99.90
10344;DHT22;5217;43.960;10.954;2023-11-18T04:11:21;14.30;99.90
10344;DHT22;5217;43.960;10.954;2023-11-18T04:13:50;14.30;99.90
10344;DHT22;5217;43.960;10.954;2023-11-18T04:16:19;14.30;99.90
10344;DHT22;5217;43.960;10.954;2023-11-18T04:18:48;14.30;99.90
10344;DHT22;5217;43.960;10.954;2023-11-18T04:21:17;14.30;99.90
10344;DHT22;5217;43.960;10.954;2023-11-18T04:23:47;14.30;99.90
10344;DHT22;5217;43.960;10.954;2023-11-18T04:26:15;14.20;99.90
10344;DHT22;5217;43.960;10.954;2023-11-18T04:28:44;14.20;99.90
10344;DHT22;5217;43.960;10.954;2023-11-18T04:31:12;14.20;99.90
10344;DHT22;5217;43.960;10.954;2023-11-18T04:33:41;14.20;99.90
10344;DHT22;5217;43.960;10.954;2023-11-18T04:36:10;14.10;99.90
10344;DHT22;5217;43.960;10.954;2023-11-18T04:38:40;14.10;99.90
10344;DHT22;5217;43.960;10.954;2023-11-18T04:41:10;14.10;99.90
10344;DHT22;5217;43.960;10.954;2023-11-18T04:43:38;14.10;99.90
10344;DHT22;5217;43.960;10.954;2023-11-18T04:46:12;14.10;99.90
10344;DHT22;5217;43.960;10.954;2023-11-18T04:48:40;14.10;99.90
10344;DHT22;5217;43.960;10.954;2023-11-18T04:51:09;14.10;99.90
10344;DHT22;5217;43.960;10.954;2023-11-18T04:53:38;14.10;99.90
10344;DHT22;5217;43.960;10.954;2023-11-18T04:56:07;14.10;99.90
10344;DHT22;5217;43.960;10.954;2023-11-18T04:58:39;14.10;99.90
10344;DHT22;5217;43.960;10.954;2023-11-18T05:01:08;14.10;99.90
10344;DHT22;5217;43.960;10.954;2023-11-18T05:03:37;14.10;99.90
10344;DHT22;5217;43.960;10.954;2023-11-18T05:06:07;14.10;99.90
10344;DHT22;5217;43.960;10.954;2023-11-18T05:08:35;14.10;99.90
10344;DHT22;5217;43.960;10.954;2023-11-18T05:11:04;14.10;99.90
10344;DHT22;5217;43.960;10.954;2023-11-18T05:13:33;14.00;99.90
10344;DHT22;5217;43.960;10.954;2023-11-18T05:16:04;14.00;99.90
10344;DHT22;5217;43.960;10.954;2023-11-18T05:18:32;14.00;99.90
10344;DHT22;5217;43.960;10.954;2023-11-18T05:21:04;14.00;99.90
10344;DHT22;5217;43.960;10.954;2023-11-18T05:23:34;14.00;99.90
10344;DHT22;5217;43.960;10.954;2023-11-18T05:26:03;13.90;99.90
10344;DHT22;5217;43.960;10.954;2023-11-18T05:28:33;13.90;99.90
10344;DHT22;5217;43.960;10.954;2023-11-18T05:31:03;13.90;99.90
10344;DHT22;5217;43.960;10.954;2023-11-18T05:33:33;13.90;99.90
10344;DHT22;5217;43.960;10.954;2023-11-18T05:36:03;13.90;99.90
10344;DHT22;5217;43.960;10.954;2023-11-18T05:38:32;13.90;99.90
10344;DHT22;5217;43.960;10.954;2023-11-18T05:41:02;13.90;99.90
10344;DHT22;5217;43.960;10.954;2023-11-18T05:43:33;13.90;99.90
10344;DHT22;5217;43.960;10.954;2023-11-18T05:46:09;13.90;99.90
10344;DHT22;5217;43.960;10.954;2023-11-18T05:48:48;13.80;99.90
10344;DHT22;5217;43.960;10.954;2023-11-18T05:51:20;13.80;99.90
10344;DHT22;5217;43.960;10.954;2023-11-18T05:53:50;13.80;99.90
10344;DHT22;5217;43.960;10.954;2023-11-18T05:56:20;13.80;99.90
10344;DHT22;5217;43.960;10.954;2023-11-18T05:58:50;13.80;99.90
10344;DHT22;5217;43.960;10.954;2023-11-18T06:01:22;13.80;99.90
10344;DHT22;5217;43.960;10.954;2023-11-18T06:03:51;13.80;99.90
10344;DHT22;5217;43.960;10.954;2023-11-18T06:06:19;13.70;99.90
10344;DHT22;5217;43.960;10.954;2023-11-18T06:08:51;13.70;99.90
10344;DHT22;5217;43.960;10.954;2023-11-18T06:11:21;13.70;99.90
10344;DHT22;5217;43.960;10.954;2023-11-18T06:13:51;13.70;99.90
10344;DHT22;5217;43.960;10.954;2023-11-18T06:16:23;13.70;99.90
10344;DHT22;5217;43.960;10.954;2023-11-18T06:18:53;13.70;99.90
10344;DHT22;5217;43.960;10.954;2023-11-18T06:21:23;13.70;99.90
10344;DHT22;5217;43.960;10.954;2023-11-18T06:23:55;13.70;99.90
10344;DHT22;5217;43.960;10.954;2023-11-18T06:26:24;13.70;99.90
10344;DHT22;5217;43.960;10.954;2023-11-18T06:28:55;13.70;99.90
10344;DHT22;5217;43.960;10.954;2023-11-18T06:31:25;13.60;99.90
10344;DHT22;5217;43.960;10.954;2023-11-18T06:33:56;13.70;99.90
10344;DHT22;5217;43.960;10.954;2023-11-18T06:36:25;13.60;99.90
10344;DHT22;5217;43.960;10.954;2023-11-18T06:38:56;13.70;99.90
10344;DHT22;5217;43.960;10.954;2023-11-18T06:41:26;13.60;99.90
10344;DHT22;5217;43.960;10.954;2023-11-18T06:44:01;13.60;99.90
10344;DHT22;5217;43.960;10.954;2023-11-18T06:46:37;13.60;99.90
10344;DHT22;5217;43.960;10.954;2023-11-18T06:49:08;13.60;99.90
10344;DHT22;5217;43.960;10.954;2023-11-18T06:51:42;13.60;99.90
10344;DHT22;5217;43.960;10.954;2023-11-18T06:54:11;13.60;99.90
10344;DHT22;5217;43.960;10.954;2023-11-18T06:56:41;13.60;99.90
10344;DHT22;5217;43.960;10.954;2023-11-18T06:59:12;13.60;99.90
10344;DHT22;5217;43.960;10.954;2023-11-18T07:01:44;13.60;99.90
10344;DHT22;5217;43.960;10.954;2023-11-18T07:04:13;13.50;99.90
10344;DHT22;5217;43.960;10.954;2023-11-18T07:06:42;13.50;99.90
10344;DHT22;5217;43.960;10.954;2023-11-18T07:09:12;13.50;99.90
10344;DHT22;5217;43.960;10.954;2023-11-18T07:11:45;13.50;99.90
10344;DHT22;5217;43.960;10.954;2023-11-18T07:14:15;13.50;99.90
10344;DHT22;5217;43.960;10.954;2023-11-18T07:16:46;13.50;99.90
10344;DHT22;5217;43.960;10.954;2023-11-18T07:19:15;13.50;99.90
10344;DHT22;5217;43.960;10.954;2023-11-18T07:21:49;13.50;99.90
10344;DHT22;5217;43.960;10.954;2023-11-18T07:24:17;13.50;99.90
10344;DHT22;5217;43.960;10.954;2023-11-18T07:26:48;13.40;99.90
10344;DHT22;5217;43.960;10.954;2023-11-18T07:29:18;13.50;99.90
10344;DHT22;5217;43.960;10.954;2023-11-18T07:31:48;13.40;99.90
10344;DHT22;5217;43.960;10.954;2023-11-18T07:34:16;13.40;99.90
10344;DHT22;5217;43.960;10.954;2023-11-18T07:36:45;13.40;99.90
10344;DHT22;5217;43.960;10.954;2023-11-18T07:39:15;13.40;99.90
10344;DHT22;5217;43.960;10.954;2023-11-18T07:41:51;13.40;99.90
10344;DHT22;5217;43.960;10.954;2023-11-18T07:44:20;13.40;99.90
10344;DHT22;5217;43.960;10.954;2023-11-18T07:46:50;13.40;99.90
10344;DHT22;5217;43.960;10.954;2023-11-18T07:49:18;13.40;99.90
10344;DHT22;5217;43.960;10.954;2023-11-18T07:51:48;13.40;99.90
10344;DHT22;5217;43.960;10.954;2023-11-18T07:54:16;13.40;99.90
10344;DHT22;5217;43.960;10.954;2023-11-18T07:56:45;13.40;99.90
10344;DHT22;5217;43.960;10.954;2023-11-18T07:59:16;13.40;99.90
10344;DHT22;5217;43.960;10.954;2023-11-18T08:01:45;13.50;99.90
10344;DHT22;5217;43.960;10.954;2023-11-18T08:04:15;13.60;99.90
10344;DHT22;5217;43.960;10.954;2023-11-18T08:06:49;13.60;99.90
10344;DHT22;5217;43.960;10.954;2023-11-18T08:09:19;13.60;99.90
10344;DHT22;5217;43.960;10.954;2023-11-18T08:11:50;13.70;99.90
10344;DHT22;5217;43.960;10.954;2023-11-18T08:14:20;13.80;99.90
10344;DHT22;5217;43.960;10.954;2023-11-18T08:16:50;13.70;99.90
10344;DHT22;5217;43.960;10.954;2023-11-18T08:19:21;13.80;99.90
10344;DHT22;5217;43.960;10.954;2023-11-18T08:21:50;13.80;99.90
10344;DHT22;5217;43.960;10.954;2023-11-18T08:24:19;13.90;99.90
10344;DHT22;5217;43.960;10.954;2023-11-18T08:26:48;13.90;99.90
10344;DHT22;5217;43.960;10.954;2023-11-18T08:29:17;13.90;99.90
10344;DHT22;5217;43.960;10.954;2023-11-18T08:31:45;14.00;99.90
10344;DHT22;5217;43.960;10.954;2023-11-18T08:34:14;14.10;99.90
10344;DHT22;5217;43.960;10.954;2023-11-18T08:36:45;14.10;99.90
10344;DHT22;5217;43.960;10.954;2023-11-18T08:39:14;14.10;99.90
10344;DHT22;5217;43.960;10.954;2023-11-18T08:41:43;14.20;99.90
10344;DHT22;5217;43.960;10.954;2023-11-18T08:44:12;14.20;99.90
10344;DHT22;5217;43.960;10.954;2023-11-18T08:46:51;14.20;99.90
10344;DHT22;5217;43.960;10.954;2023-11-18T08:49:20;14.30;99.90
10344;DHT22;5217;43.960;10.954;2023-11-18T08:51:51;14.30;99.90
10344;DHT22;5217;43.960;10.954;2023-11-18T08:54:24;14.40;99.90
10344;DHT22;5217;43.960;10.954;2023-11-18T08:57:04;14.40;99.90
10344;DHT22;5217;43.960;10.954;2023-11-18T08:59:50;14.50;99.90
10344;DHT22;5217;43.960;10.954;2023-11-18T09:02:19;14.50;99.90
10344;DHT22;5217;43.960;10.954;2023-11-18T09:04:50;14.60;99.90
10344;DHT22;5217;43.960;10.954;2023-11-18T09:07:24;14.60;99.90
10344;DHT22;5217;43.960;10.954;2023-11-18T09:09:53;14.70;99.90
10344;DHT22;5217;43.960;10.954;2023-11-18T09:12:21;14.70;99.90
10344;DHT22;5217;43.960;10.954;2023-11-18T09:14:51;14.80;99.90
10344;DHT22;5217;43.960;10.954;2023-11-18T09:17:21;14.80;99.90
10344;DHT22;5217;43.960;10.954;2023-11-18T09:19:50;14.90;99.90
10344;DHT22;5217;43.960;10.954;2023-11-18T09:22:20;14.90;99.90
10344;DHT22;5217;43.960;10.954;2023-11-18T09:24:50;14.90;99.90
10344;DHT22;5217;43.960;10.954;2023-11-18T09:27:18;15.00;99.90
10344;DHT22;5217;43.960;10.954;2023-11-18T09:29:47;15.00;99.90
10344;DHT22;5217;43.960;10.954;2023-11-18T09:32:16;15.00;99.90
10344;DHT22;5217;43.960;10.954;2023-11-18T09:34:46;15.10;99.90
10344;DHT22;5217;43.960;10.954;2023-11-18T09:37:15;15.10;99.90
10344;DHT22;5217;43.960;10.954;2023-11-18T09:39:43;15.10;99.90
10344;DHT22;5217;43.960;10.954;2023-11-18T09:42:14;15.20;99.90
10344;DHT22;5217;43.960;10.954;2023-11-18T09:44:47;15.20;99.90
10344;DHT22;5217;43.960;10.954;2023-11-18T09:47:17;15.30;99.90
10344;DHT22;5217;43.960;10.954;2023-11-18T09:49:52;15.40;99.90
10344;DHT22;5217;43.960;10.954;2023-11-18T09:52:26;15.50;99.90
10344;DHT22;5217;43.960;10.954;2023-11-18T09:55:02;15.50;99.90
10344;DHT22;5217;43.960;10.954;2023-11-18T09:57:37;15.60;99.90
10344;DHT22;5217;43.960;10.954;2023-11-18T10:00:09;15.60;99.90
10344;DHT22;5217;43.960;10.954;2023-11-18T10:02:48;15.70;99.90
10344;DHT22;5217;43.960;10.954;2023-11-18T10:05:19;15.70;99.90
10344;DHT22;5217;43.960;10.954;2023-11-18T10:07:50;15.70;99.90
10344;DHT22;5217;43.960;10.954;2023-11-18T10:10:19;15.80;99.90
10344;DHT22;5217;43.960;10.954;2023-11-18T10:12:51;15.80;99.90
10344;DHT22;5217;43.960;10.954;2023-11-18T10:15:22;15.90;99.90
10344;DHT22;5217;43.960;10.954;2023-11-18T10:17:52;15.90;99.90
10344;DHT22;5217;43.960;10.954;2023-11-18T10:20:43;15.90;99.90
10344;DHT22;5217;43.960;10.954;2023-11-18T10:23:14;15.90;99.90
10344;DHT22;5217;43.960;10.954;2023-11-18T10:25:47;16.00;99.90
10344;DHT22;5217;43.960;10.954;2023-11-18T10:28:24;16.10;99.90
10344;DHT22;5217;43.960;10.954;2023-11-18T10:30:56;16.10;99.90
10344;DHT22;5217;43.960;10.954;2023-11-18T10:33:26;16.20;99.90
10344;DHT22;5217;43.960;10.954;2023-11-18T10:35:59;16.20;99.90
10344;DHT22;5217;43.960;10.954;2023-11-18T10:38:31;16.20;99.90
10344;DHT22;5217;43.960;10.954;2023-11-18T10:41:05;16.30;99.90
10344;DHT22;5217;43.960;10.954;2023-11-18T10:43:35;16.40;99.90
10344;DHT22;5217;43.960;10.954;2023-11-18T10:46:05;16.40;99.90
10344;DHT22;5217;43.960;10.954;2023-11-18T10:48:44;16.50;99.90
10344;DHT22;5217;43.960;10.954;2023-11-18T10:51:16;16.50;99.90
10344;DHT22;5217;43.960;10.954;2023-11-18T10:53:47;16.60;99.90
10344;DHT22;5217;43.960;10.954;2023-11-18T10:56:26;16.60;99.90
10344;DHT22;5217;43.960;10.954;2023-11-18T10:58:58;16.60;99.90
10344;DHT22;5217;43.960;10.954;2023-11-18T11:01:30;16.70;99.90
10344;DHT22;5217;43.960;10.954;2023-11-18T11:04:00;16.70;99.90
10344;DHT22;5217;43.960;10.954;2023-11-18T11:06:32;16.70;99.90
10344;DHT22;5217;43.960;10.954;2023-11-18T11:09:02;16.80;99.90
10344;DHT22;5217;43.960;10.954;2023-11-18T11:11:39;16.80;99.90
10344;DHT22;5217;43.960;10.954;2023-11-18T11:14:12;16.80;99.90
10344;DHT22;5217;43.960;10.954;2023-11-18T11:16:47;16.90;99.90
10344;DHT22;5217;43.960;10.954;2023-11-18T11:19:24;16.90;99.90
10344;DHT22;5217;43.960;10.954;2023-11-18T11:22:04;16.90;99.90
10344;DHT22;5217;43.960;10.954;2023-11-18T11:24:47;17.00;99.90
10344;DHT22;5217;43.960;10.954;2023-11-18T11:27:23;17.00;99.90
10344;DHT22;5217;43.960;10.954;2023-11-18T11:30:10;17.10;99.90
10344;DHT22;5217;43.960;10.954;2023-11-18T11:32:50;17.20;99.90
10344;DHT22;5217;43.960;10.954;2023-11-18T11:35:22;17.20;99.90
10344;DHT22;5217;43.960;10.954;2023-11-18T11:37:52;17.20;99.90
10344;DHT22;5217;43.960;10.954;2023-11-18T11:40:26;17.30;99.90
10344;DHT22;5217;43.960;10.954;2023-11-18T11:42:56;17.30;99.90
10344;DHT22;5217;43.960;10.954;2023-11-18T11:45:29;17.30;99.50
10344;DHT22;5217;43.960;10.954;2023-11-18T11:48:00;17.40;99.30
10344;DHT22;5217;43.960;10.954;2023-11-18T11:53:45;17.40;98.60
10344;DHT22;5217;43.960;10.954;2023-11-18T11:56:15;17.40;98.20
10344;DHT22;5217;43.960;10.954;2023-11-18T11:58:48;17.40;98.70
10344;DHT22;5217;43.960;10.954;2023-11-18T12:01:27;17.50;98.10
10344;DHT22;5217;43.960;10.954;2023-11-18T12:04:03;17.50;98.80
10344;DHT22;5217;43.960;10.954;2023-11-18T12:06:40;17.60;99.20
10344;DHT22;5217;43.960;10.954;2023-11-18T12:09:09;17.60;99.00
10344;DHT22;5217;43.960;10.954;2023-11-18T12:11:40;17.70;97.10
10344;DHT22;5217;43.960;10.954;2023-11-18T12:14:13;17.70;97.50
10344;DHT22;5217;43.960;10.954;2023-11-18T12:17:02;17.80;97.90
10344;DHT22;5217;43.960;10.954;2023-11-18T12:19:37;17.80;97.50
10344;DHT22;5217;43.960;10.954;2023-11-18T12:22:17;17.90;97.40
10344;DHT22;5217;43.960;10.954;2023-11-18T12:25:30;17.90;97.30
10344;DHT22;5217;43.960;10.954;2023-11-18T12:28:11;17.90;96.60
10344;DHT22;5217;43.960;10.954;2023-11-18T12:30:43;18.00;97.30
10344;DHT22;5217;43.960;10.954;2023-11-18T12:33:25;18.10;97.00
10344;DHT22;5217;43.960;10.954;2023-11-18T12:36:37;18.10;96.90
10344;DHT22;5217;43.960;10.954;2023-11-18T12:42:39;18.10;96.40
10344;DHT22;5217;43.960;10.954;2023-11-18T12:48:21;18.20;95.60
10344;DHT22;5217;43.960;10.954;2023-11-18T12:50:56;18.20;95.10
10344;DHT22;5217;43.960;10.954;2023-11-18T12:53:25;18.20;95.50
10344;DHT22;5217;43.960;10.954;2023-11-18T12:55:55;18.30;96.00
10344;DHT22;5217;43.960;10.954;2023-11-18T12:58:26;18.30;96.20
10344;DHT22;5217;43.960;10.954;2023-11-18T13:00:55;18.30;96.60
10344;DHT22;5217;43.960;10.954;2023-11-18T13:03:25;18.40;95.90
10344;DHT22;5217;43.960;10.954;2023-11-18T13:05:55;18.40;94.80
10344;DHT22;5217;43.960;10.954;2023-11-18T13:08:24;18.40;95.10
10344;DHT22;5217;43.960;10.954;2023-11-18T13:10:53;18.40;94.80
10344;DHT22;5217;43.960;10.954;2023-11-18T13:13:22;18.40;95.40
10344;DHT22;5217;43.960;10.954;2023-11-18T13:15:51;18.40;94.00
10344;DHT22;5217;43.960;10.954;2023-11-18T13:18:19;18.40;94.20
10344;DHT22;5217;43.960;10.954;2023-11-18T13:20:56;18.40;94.30
10344;DHT22;5217;43.960;10.954;2023-11-18T13:23:25;18.40;94.50
10344;DHT22;5217;43.960;10.954;2023-11-18T13:25:55;18.50;93.30
10344;DHT22;5217;43.960;10.954;2023-11-18T13:28:27;18.50;93.80
10344;DHT22;5217;43.960;10.954;2023-11-18T13:30:56;18.50;94.20
10344;DHT22;5217;43.960;10.954;2023-11-18T13:33:24;18.60;94.50
10344;DHT22;5217;43.960;10.954;2023-11-18T13:35:53;18.60;94.20
10344;DHT22;5217;43.960;10.954;2023-11-18T13:38:23;18.60;94.40
10344;DHT22;5217;43.960;10.954;2023-11-18T13:40:52;18.60;93.90
10344;DHT22;5217;43.960;10.954;2023-11-18T13:43:20;18.60;94.80
10344;DHT22;5217;43.960;10.954;2023-11-18T13:45:53;18.70;95.40
10344;DHT22;5217;43.960;10.954;2023-11-18T13:48:22;18.70;95.10
10344;DHT22;5217;43.960;10.954;2023-11-18T13:50:51;18.70;94.10
10344;DHT22;5217;43.960;10.954;2023-11-18T13:53:20;18.70;93.50
10344;DHT22;5217;43.960;10.954;2023-11-18T13:55:51;18.70;94.50
10344;DHT22;5217;43.960;10.954;2023-11-18T13:58:19;18.70;94.30
10344;DHT22;5217;43.960;10.954;2023-11-18T14:00:49;18.70;94.70
10344;DHT22;5217;43.960;10.954;2023-11-18T14:03:18;18.70;94.80
10344;DHT22;5217;43.960;10.954;2023-11-18T14:05:51;18.70;94.60
10344;DHT22;5217;43.960;10.954;2023-11-18T14:08:22;18.70;95.80
10344;DHT22;5217;43.960;10.954;2023-11-18T14:10:52;18.70;95.50
10344;DHT22;5217;43.960;10.954;2023-11-18T14:13:29;18.70;94.80
10344;DHT22;5217;43.960;10.954;2023-11-18T14:15:58;18.70;95.70
10344;DHT22;5217;43.960;10.954;2023-11-18T14:18:27;18.70;96.60
10344;DHT22;5217;43.960;10.954;2023-11-18T14:20:55;18.70;97.20
10344;DHT22;5217;43.960;10.954;2023-11-18T14:23:24;18.70;98.10
10344;DHT22;5217;43.960;10.954;2023-11-18T14:25:54;18.70;98.90
10344;DHT22;5217;43.960;10.954;2023-11-18T14:28:23;18.60;99.40
10344;DHT22;5217;43.960;10.954;2023-11-18T14:30:53;18.60;99.90
10344;DHT22;5217;43.960;10.954;2023-11-18T14:33:22;18.60;99.90
10344;DHT22;5217;43.960;10.954;2023-11-18T14:35:50;18.60;99.90
10344;DHT22;5217;43.960;10.954;2023-11-18T14:38:20;18.50;99.90
10344;DHT22;5217;43.960;10.954;2023-11-18T14:40:49;18.50;99.90
10344;DHT22;5217;43.960;10.954;2023-11-18T14:43:20;18.50;99.90
10344;DHT22;5217;43.960;10.954;2023-11-18T14:45:48;18.50;99.90
10344;DHT22;5217;43.960;10.954;2023-11-18T14:48:17;18.50;99.90
10344;DHT22;5217;43.960;10.954;2023-11-18T14:50:45;18.40;99.90
10344;DHT22;5217;43.960;10.954;2023-11-18T14:53:13;18.50;99.90
10344;DHT22;5217;43.960;10.954;2023-11-18T14:55:42;18.40;99.90
10344;DHT22;5217;43.960;10.954;2023-11-18T14:58:10;18.40;99.90
10344;DHT22;5217;43.960;10.954;2023-11-18T15:00:41;18.40;99.90
10344;DHT22;5217;43.960;10.954;2023-11-18T15:03:10;18.40;99.90
10344;DHT22;5217;43.960;10.954;2023-11-18T15:05:39;18.30;99.90
10344;DHT22;5217;43.960;10.954;2023-11-18T15:08:07;18.30;99.90
10344;DHT22;5217;43.960;10.954;2023-11-18T15:10:36;18.30;99.90
10344;DHT22;5217;43.960;10.954;2023-11-18T15:13:06;18.20;99.90
10344;DHT22;5217;43.960;10.954;2023-11-18T15:15:44;18.20;99.90
10344;DHT22;5217;43.960;10.954;2023-11-18T15:18:14;18.20;99.90
10344;DHT22;5217;43.960;10.954;2023-11-18T15:20:45;18.20;99.90
10344;DHT22;5217;43.960;10.954;2023-11-18T15:23:15;18.10;99.90
10344;DHT22;5217;43.960;10.954;2023-11-18T15:25:45;18.10;99.90
10344;DHT22;5217;43.960;10.954;2023-11-18T15:28:14;18.00;99.90
10344;DHT22;5217;43.960;10.954;2023-11-18T15:30:45;18.00;99.90
10344;DHT22;5217;43.960;10.954;2023-11-18T15:33:13;18.00;99.90
10344;DHT22;5217;43.960;10.954;2023-11-18T15:35:42;17.90;99.90
10344;DHT22;5217;43.960;10.954;2023-11-18T15:38:13;17.90;99.90
10344;DHT22;5217;43.960;10.954;2023-11-18T15:40:48;17.90;99.90
10344;DHT22;5217;43.960;10.954;2023-11-18T15:43:18;17.80;99.90
10344;DHT22;5217;43.960;10.954;2023-11-18T15:45:48;17.80;99.90
10344;DHT22;5217;43.960;10.954;2023-11-18T15:48:16;17.80;99.90
10344;DHT22;5217;43.960;10.954;2023-11-18T15:50:45;17.80;99.90
10344;DHT22;5217;43.960;10.954;2023-11-18T15:53:13;17.70;99.90
10344;DHT22;5217;43.960;10.954;2023-11-18T15:55:42;17.70;99.90
10344;DHT22;5217;43.960;10.954;2023-11-18T15:58:15;17.60;99.90
10344;DHT22;5217;43.960;10.954;2023-11-18T16:00:47;17.60;99.90
10344;DHT22;5217;43.960;10.954;2023-11-18T16:03:19;17.60;99.90